sensor_id;sensor_type;location;lat;lon;timestamp;P1;durP1;ratioP1;P2;durP2;ratioP2
13279;SDS011;6708;49.814;8.652;2022-09-29T00:02:02;1.20;;;1.20;;
13279;SDS011;6708;49.814;8.652;2022-09-29T00:04:31;1.40;;;1.40;;
13279;SDS011;6708;49.814;8.652;2022-09-29T00:07:00;2.13;;;1.70;;
13279;SDS011;6708;49.814;8.652;2022-09-29T00:09:29;1.77;;;1.27;;
13279;SDS011;6708;49.814;8.652;2022-09-29T00:11:57;1.27;;;1.17;;
13279;SDS011;6708;49.814;8.652;2022-09-29T00:14:26;2.20;;;1.37;;
13279;SDS011;6708;49.814;8.652;2022-09-29T00:16:54;1.10;;;1.10;;
13279;SDS011;6708;49.814;8.652;2022-09-29T00:19:25;1.60;;;1.50;;
13279;SDS011;6708;49.814;8.652;2022-09-29T00:21:54;1.47;;;1.37;;
13279;SDS011;6708;49.814;8.652;2022-09-29T00:24:23;1.07;;;1.07;;
13279;SDS011;6708;49.814;8.652;2022-09-29T00:26:51;1.07;;;1.07;;
13279;SDS011;6708;49.814;8.652;2022-09-29T00:29:20;1.83;;;1.73;;
13279;SDS011;6708;49.814;8.652;2022-09-29T00:31:49;1.77;;;1.53;;
13279;SDS011;6708;49.814;8.652;2022-09-29T00:34:19;2.53;;;2.00;;
13279;SDS011;6708;49.814;8.652;2022-09-29T00:36:50;1.50;;;1.40;;
13279;SDS011;6708;49.814;8.652;2022-09-29T00:39:18;1.50;;;1.50;;
13279;SDS011;6708;49.814;8.652;2022-09-29T00:41:47;1.20;;;1.10;;
13279;SDS011;6708;49.814;8.652;2022-09-29T00:47:14;1.47;;;1.47;;
13279;SDS011;6708;49.814;8.652;2022-09-29T00:49:44;1.67;;;1.60;;
13279;SDS011;6708;49.814;8.652;2022-09-29T00:52:18;1.60;;;1.50;;
13279;SDS011;6708;49.814;8.652;2022-09-29T00:54:49;1.33;;;1.33;;
13279;SDS011;6708;49.814;8.652;2022-09-29T00:57:20;1.47;;;1.47;;
13279;SDS011;6708;49.814;8.652;2022-09-29T00:59:55;1.70;;;1.60;;
13279;SDS011;6708;49.814;8.652;2022-09-29T01:02:27;1.70;;;1.60;;
13279;SDS011;6708;49.814;8.652;2022-09-29T01:04:57;1.47;;;1.47;;
13279;SDS011;6708;49.814;8.652;2022-09-29T01:07:29;2.47;;;1.47;;
13279;SDS011;6708;49.814;8.652;2022-09-29T01:09:58;1.40;;;1.30;;
13279;SDS011;6708;49.814;8.652;2022-09-29T01:12:27;1.60;;;1.60;;
13279;SDS011;6708;49.814;8.652;2022-09-29T01:14:55;1.87;;;1.60;;
13279;SDS011;6708;49.814;8.652;2022-09-29T01:17:24;2.50;;;2.30;;
13279;SDS011;6708;49.814;8.652;2022-09-29T01:19:55;2.23;;;1.87;;
13279;SDS011;6708;49.814;8.652;2022-09-29T01:22:39;1.73;;;1.70;;
13279;SDS011;6708;49.814;8.652;2022-09-29T01:25:24;1.83;;;1.73;;
13279;SDS011;6708;49.814;8.652;2022-09-29T01:31:08;1.87;;;1.77;;
13279;SDS011;6708;49.814;8.652;2022-09-29T01:33:42;1.93;;;1.83;;
13279;SDS011;6708;49.814;8.652;2022-09-29T01:36:16;1.70;;;1.60;;
13279;SDS011;6708;49.814;8.652;2022-09-29T01:38:54;1.80;;;1.70;;
13279;SDS011;6708;49.814;8.652;2022-09-29T01:41:30;1.50;;;1.40;;
13279;SDS011;6708;49.814;8.652;2022-09-29T01:44:04;1.80;;;1.70;;
13279;SDS011;6708;49.814;8.652;2022-09-29T01:46:39;2.00;;;1.90;;
13279;SDS011;6708;49.814;8.652;2022-09-29T01:49:10;1.70;;;1.60;;
13279;SDS011;6708;49.814;8.652;2022-09-29T01:51:40;1.70;;;1.60;;
13279;SDS011;6708;49.814;8.652;2022-09-29T01:54:14;1.87;;;1.77;;
13279;SDS011;6708;49.814;8.652;2022-09-29T01:56:47;2.07;;;1.93;;
13279;SDS011;6708;49.814;8.652;2022-09-29T01:59:20;1.63;;;1.60;;
13279;SDS011;6708;49.814;8.652;2022-09-29T02:01:54;2.07;;;1.93;;
13279;SDS011;6708;49.814;8.652;2022-09-29T02:04:27;1.83;;;1.73;;
13279;SDS011;6708;49.814;8.652;2022-09-29T02:06:59;1.97;;;1.87;;
13279;SDS011;6708;49.814;8.652;2022-09-29T02:09:32;2.10;;;2.00;;
13279;SDS011;6708;49.814;8.652;2022-09-29T02:12:06;1.87;;;1.77;;
13279;SDS011;6708;49.814;8.652;2022-09-29T02:14:36;2.27;;;1.83;;
13279;SDS011;6708;49.814;8.652;2022-09-29T02:17:12;2.20;;;2.10;;
13279;SDS011;6708;49.814;8.652;2022-09-29T02:19:44;1.83;;;1.73;;
13279;SDS011;6708;49.814;8.652;2022-09-29T02:22:14;1.90;;;1.90;;
13279;SDS011;6708;49.814;8.652;2022-09-29T02:24:43;1.70;;;1.60;;
13279;SDS011;6708;49.814;8.652;2022-09-29T02:27:11;1.60;;;1.60;;
13279;SDS011;6708;49.814;8.652;2022-09-29T02:29:40;2.27;;;2.07;;
13279;SDS011;6708;49.814;8.652;2022-09-29T02:32:11;2.10;;;2.00;;
13279;SDS011;6708;49.814;8.652;2022-09-29T02:34:41;2.27;;;2.00;;
13279;SDS011;6708;49.814;8.652;2022-09-29T02:37:16;2.20;;;2.10;;
13279;SDS011;6708;49.814;8.652;2022-09-29T02:39:53;1.70;;;1.70;;
13279;SDS011;6708;49.814;8.652;2022-09-29T02:42:27;1.77;;;1.67;;
13279;SDS011;6708;49.814;8.652;2022-09-29T02:45:08;1.93;;;1.80;;
13279;SDS011;6708;49.814;8.652;2022-09-29T02:47:48;1.77;;;1.67;;
13279;SDS011;6708;49.814;8.652;2022-09-29T02:50:31;1.80;;;1.70;;
13279;SDS011;6708;49.814;8.652;2022-09-29T02:53:18;1.60;;;1.50;;
13279;SDS011;6708;49.814;8.652;2022-09-29T02:55:53;1.93;;;1.83;;
13279;SDS011;6708;49.814;8.652;2022-09-29T02:58:26;2.33;;;2.23;;
13279;SDS011;6708;49.814;8.652;2022-09-29T03:00:58;3.03;;;2.33;;
13279;SDS011;6708;49.814;8.652;2022-09-29T03:03:29;2.03;;;1.93;;
13279;SDS011;6708;49.814;8.652;2022-09-29T03:05:57;1.90;;;1.80;;
13279;SDS011;6708;49.814;8.652;2022-09-29T03:08:28;1.53;;;1.50;;
13279;SDS011;6708;49.814;8.652;2022-09-29T03:10:57;1.87;;;1.87;;
13279;SDS011;6708;49.814;8.652;2022-09-29T03:13:26;2.30;;;2.10;;
13279;SDS011;6708;49.814;8.652;2022-09-29T03:15:54;2.87;;;2.67;;
13279;SDS011;6708;49.814;8.652;2022-09-29T03:18:23;2.13;;;2.03;;
13279;SDS011;6708;49.814;8.652;2022-09-29T03:20:55;2.37;;;2.27;;
13279;SDS011;6708;49.814;8.652;2022-09-29T03:23:24;2.27;;;2.17;;
13279;SDS011;6708;49.814;8.652;2022-09-29T03:25:53;2.40;;;2.30;;
13279;SDS011;6708;49.814;8.652;2022-09-29T03:28:21;2.77;;;2.30;;
13279;SDS011;6708;49.814;8.652;2022-09-29T03:30:50;2.20;;;2.07;;
13279;SDS011;6708;49.814;8.652;2022-09-29T03:33:19;2.40;;;2.30;;
13279;SDS011;6708;49.814;8.652;2022-09-29T03:35:48;4.70;;;2.70;;
13279;SDS011;6708;49.814;8.652;2022-09-29T03:38:19;3.27;;;2.10;;
13279;SDS011;6708;49.814;8.652;2022-09-29T03:40:47;2.43;;;2.23;;
13279;SDS011;6708;49.814;8.652;2022-09-29T03:43:16;2.43;;;2.27;;
13279;SDS011;6708;49.814;8.652;2022-09-29T03:45:47;2.43;;;2.23;;
13279;SDS011;6708;49.814;8.652;2022-09-29T03:48:17;2.70;;;2.50;;
13279;SDS011;6708;49.814;8.652;2022-09-29T03:50:48;2.93;;;2.77;;
13279;SDS011;6708;49.814;8.652;2022-09-29T03:53:22;3.10;;;2.50;;
13279;SDS011;6708;49.814;8.652;2022-09-29T03:55:50;3.00;;;2.73;;
13279;SDS011;6708;49.814;8.652;2022-09-29T03:58:19;2.77;;;2.57;;
13279;SDS011;6708;49.814;8.652;2022-09-29T04:00:48;2.77;;;2.63;;
13279;SDS011;6708;49.814;8.652;2022-09-29T04:03:17;2.77;;;2.60;;
13279;SDS011;6708;49.814;8.652;2022-09-29T04:05:46;3.40;;;2.93;;
13279;SDS011;6708;49.814;8.652;2022-09-29T04:08:15;2.60;;;2.50;;
13279;SDS011;6708;49.814;8.652;2022-09-29T04:10:47;2.50;;;2.30;;
13279;SDS011;6708;49.814;8.652;2022-09-29T04:13:15;2.20;;;2.10;;
13279;SDS011;6708;49.814;8.652;2022-09-29T04:15:45;2.80;;;2.60;;
13279;SDS011;6708;49.814;8.652;2022-09-29T04:18:14;2.70;;;2.50;;
13279;SDS011;6708;49.814;8.652;2022-09-29T04:20:43;2.20;;;2.10;;
13279;SDS011;6708;49.814;8.652;2022-09-29T04:23:11;2.20;;;2.10;;
13279;SDS011;6708;49.814;8.652;2022-09-29T04:25:40;2.90;;;2.50;;
13279;SDS011;6708;49.814;8.652;2022-09-29T04:28:11;2.87;;;2.60;;
13279;SDS011;6708;49.814;8.652;2022-09-29T04:30:40;3.93;;;2.37;;
13279;SDS011;6708;49.814;8.652;2022-09-29T04:33:08;4.97;;;2.40;;
13279;SDS011;6708;49.814;8.652;2022-09-29T04:35:37;2.70;;;2.50;;
13279;SDS011;6708;49.814;8.652;2022-09-29T04:38:05;2.37;;;2.27;;
13279;SDS011;6708;49.814;8.652;2022-09-29T04:40:34;2.40;;;2.30;;
13279;SDS011;6708;49.814;8.652;2022-09-29T04:43:03;2.07;;;1.97;;
13279;SDS011;6708;49.814;8.652;2022-09-29T04:45:35;1.93;;;1.93;;
13279;SDS011;6708;49.814;8.652;2022-09-29T04:48:03;3.30;;;2.67;;
13279;SDS011;6708;49.814;8.652;2022-09-29T04:50:32;2.23;;;2.13;;
13279;SDS011;6708;49.814;8.652;2022-09-29T04:53:01;2.43;;;2.33;;
13279;SDS011;6708;49.814;8.652;2022-09-29T04:55:29;3.33;;;2.37;;
13279;SDS011;6708;49.814;8.652;2022-09-29T04:57:58;2.63;;;2.43;;
13279;SDS011;6708;49.814;8.652;2022-09-29T05:00:26;2.67;;;2.47;;
13279;SDS011;6708;49.814;8.652;2022-09-29T05:02:58;2.13;;;2.03;;
13279;SDS011;6708;49.814;8.652;2022-09-29T05:05:29;2.43;;;2.23;;
13279;SDS011;6708;49.814;8.652;2022-09-29T05:07:58;2.63;;;2.43;;
13279;SDS011;6708;49.814;8.652;2022-09-29T05:10:28;3.00;;;2.47;;
13279;SDS011;6708;49.814;8.652;2022-09-29T05:12:57;2.33;;;2.23;;
13279;SDS011;6708;49.814;8.652;2022-09-29T05:15:26;2.10;;;2.00;;
13279;SDS011;6708;49.814;8.652;2022-09-29T05:17:54;2.40;;;2.30;;
13279;SDS011;6708;49.814;8.652;2022-09-29T05:20:25;2.30;;;2.10;;
13279;SDS011;6708;49.814;8.652;2022-09-29T05:22:56;2.40;;;2.30;;
13279;SDS011;6708;49.814;8.652;2022-09-29T05:25:25;4.83;;;4.33;;
13279;SDS011;6708;49.814;8.652;2022-09-29T05:27:55;11.13;;;4.33;;
13279;SDS011;6708;49.814;8.652;2022-09-29T05:30:24;5.57;;;3.53;;
13279;SDS011;6708;49.814;8.652;2022-09-29T05:32:53;7.40;;;5.63;;
13279;SDS011;6708;49.814;8.652;2022-09-29T05:35:21;8.07;;;6.23;;
13279;SDS011;6708;49.814;8.652;2022-09-29T05:37:52;4.93;;;4.43;;
13279;SDS011;6708;49.814;8.652;2022-09-29T05:40:21;5.20;;;4.50;;
13279;SDS011;6708;49.814;8.652;2022-09-29T05:42:51;5.73;;;5.13;;
13279;SDS011;6708;49.814;8.652;2022-09-29T05:45:19;5.03;;;4.63;;
13279;SDS011;6708;49.814;8.652;2022-09-29T05:47:48;6.70;;;6.00;;
13279;SDS011;6708;49.814;8.652;2022-09-29T05:50:17;6.27;;;5.33;;
13279;SDS011;6708;49.814;8.652;2022-09-29T05:52:45;6.43;;;5.83;;
13279;SDS011;6708;49.814;8.652;2022-09-29T05:55:17;20.70;;;8.57;;
13279;SDS011;6708;49.814;8.652;2022-09-29T05:57:48;10.33;;;8.13;;
13279;SDS011;6708;49.814;8.652;2022-09-29T06:00:17;12.17;;;10.17;;
13279;SDS011;6708;49.814;8.652;2022-09-29T06:02:46;9.97;;;8.30;;
13279;SDS011;6708;49.814;8.652;2022-09-29T06:05:14;7.57;;;6.77;;
13279;SDS011;6708;49.814;8.652;2022-09-29T06:07:43;6.43;;;5.83;;
13279;SDS011;6708;49.814;8.652;2022-09-29T06:10:12;6.53;;;6.07;;
13279;SDS011;6708;49.814;8.652;2022-09-29T06:12:43;11.13;;;10.03;;
13279;SDS011;6708;49.814;8.652;2022-09-29T06:15:12;14.80;;;12.67;;
13279;SDS011;6708;49.814;8.652;2022-09-29T06:17:40;8.10;;;7.40;;
13279;SDS011;6708;49.814;8.652;2022-09-29T06:20:08;16.70;;;7.20;;
13279;SDS011;6708;49.814;8.652;2022-09-29T06:22:37;6.97;;;6.47;;
13279;SDS011;6708;49.814;8.652;2022-09-29T06:25:06;20.60;;;11.57;;
13279;SDS011;6708;49.814;8.652;2022-09-29T06:27:35;19.73;;;8.50;;
13279;SDS011;6708;49.814;8.652;2022-09-29T06:30:08;16.63;;;9.50;;
13279;SDS011;6708;49.814;8.652;2022-09-29T06:32:38;23.30;;;7.80;;
13279;SDS011;6708;49.814;8.652;2022-09-29T06:35:07;7.23;;;6.63;;
13279;SDS011;6708;49.814;8.652;2022-09-29T06:37:49;7.37;;;6.77;;
13279;SDS011;6708;49.814;8.652;2022-09-29T06:40:17;13.03;;;6.57;;
13279;SDS011;6708;49.814;8.652;2022-09-29T06:42:49;6.60;;;6.10;;
13279;SDS011;6708;49.814;8.652;2022-09-29T06:45:21;6.90;;;6.40;;
13279;SDS011;6708;49.814;8.652;2022-09-29T06:47:49;7.43;;;6.70;;
13279;SDS011;6708;49.814;8.652;2022-09-29T06:50:17;7.10;;;6.47;;
13279;SDS011;6708;49.814;8.652;2022-09-29T06:52:46;5.93;;;5.57;;
13279;SDS011;6708;49.814;8.652;2022-09-29T06:55:15;13.83;;;6.27;;
13279;SDS011;6708;49.814;8.652;2022-09-29T06:57:43;7.33;;;6.73;;
13279;SDS011;6708;49.814;8.652;2022-09-29T07:00:13;15.17;;;8.33;;
13279;SDS011;6708;49.814;8.652;2022-09-29T07:02:46;7.83;;;7.10;;
13279;SDS011;6708;49.814;8.652;2022-09-29T07:05:14;12.63;;;8.27;;
13279;SDS011;6708;49.814;8.652;2022-09-29T07:07:43;8.90;;;8.03;;
13279;SDS011;6708;49.814;8.652;2022-09-29T07:10:12;7.50;;;6.90;;
13279;SDS011;6708;49.814;8.652;2022-09-29T07:12:40;7.97;;;7.27;;
13279;SDS011;6708;49.814;8.652;2022-09-29T07:15:11;7.47;;;6.80;;
13279;SDS011;6708;49.814;8.652;2022-09-29T07:17:39;6.90;;;6.40;;
13279;SDS011;6708;49.814;8.652;2022-09-29T07:20:11;8.13;;;7.43;;
13279;SDS011;6708;49.814;8.652;2022-09-29T07:22:39;8.30;;;7.33;;
13279;SDS011;6708;49.814;8.652;2022-09-29T07:25:08;9.23;;;8.33;;
13279;SDS011;6708;49.814;8.652;2022-09-29T07:27:37;8.40;;;7.63;;
13279;SDS011;6708;49.814;8.652;2022-09-29T07:30:07;11.43;;;8.40;;
13279;SDS011;6708;49.814;8.652;2022-09-29T07:32:37;10.77;;;8.37;;
13279;SDS011;6708;49.814;8.652;2022-09-29T07:35:05;8.97;;;8.17;;
13279;SDS011;6708;49.814;8.652;2022-09-29T07:37:43;8.80;;;8.00;;
13279;SDS011;6708;49.814;8.652;2022-09-29T07:40:18;7.80;;;7.10;;
13279;SDS011;6708;49.814;8.652;2022-09-29T07:42:47;8.27;;;7.47;;
13279;SDS011;6708;49.814;8.652;2022-09-29T07:45:16;8.57;;;7.80;;
13279;SDS011;6708;49.814;8.652;2022-09-29T07:47:45;8.30;;;7.60;;
13279;SDS011;6708;49.814;8.652;2022-09-29T07:50:13;7.53;;;6.93;;
13279;SDS011;6708;49.814;8.652;2022-09-29T07:52:45;9.20;;;7.70;;
13279;SDS011;6708;49.814;8.652;2022-09-29T07:55:17;8.20;;;7.40;;
13279;SDS011;6708;49.814;8.652;2022-09-29T07:57:45;8.23;;;7.53;;
13279;SDS011;6708;49.814;8.652;2022-09-29T08:00:16;8.20;;;7.40;;
13279;SDS011;6708;49.814;8.652;2022-09-29T08:02:44;8.13;;;7.40;;
13279;SDS011;6708;49.814;8.652;2022-09-29T08:05:13;11.23;;;8.13;;
13279;SDS011;6708;49.814;8.652;2022-09-29T08:07:45;13.07;;;9.10;;
13279;SDS011;6708;49.814;8.652;2022-09-29T08:10:18;10.03;;;8.70;;
13279;SDS011;6708;49.814;8.652;2022-09-29T08:12:46;9.73;;;8.60;;
13279;SDS011;6708;49.814;8.652;2022-09-29T08:15:15;9.23;;;8.37;;
13279;SDS011;6708;49.814;8.652;2022-09-29T08:17:43;9.00;;;8.30;;
13279;SDS011;6708;49.814;8.652;2022-09-29T08:20:12;10.77;;;8.43;;
13279;SDS011;6708;49.814;8.652;2022-09-29T08:22:40;9.43;;;8.73;;
13279;SDS011;6708;49.814;8.652;2022-09-29T08:25:12;9.60;;;8.70;;
13279;SDS011;6708;49.814;8.652;2022-09-29T08:27:41;9.60;;;8.70;;
13279;SDS011;6708;49.814;8.652;2022-09-29T08:30:10;10.13;;;9.13;;
13279;SDS011;6708;49.814;8.652;2022-09-29T08:32:40;10.30;;;9.40;;
13279;SDS011;6708;49.814;8.652;2022-09-29T08:35:09;9.40;;;8.10;;
13279;SDS011;6708;49.814;8.652;2022-09-29T08:37:38;8.57;;;7.83;;
13279;SDS011;6708;49.814;8.652;2022-09-29T08:40:06;8.87;;;8.00;;
13279;SDS011;6708;49.814;8.652;2022-09-29T08:42:42;8.97;;;8.27;;
13279;SDS011;6708;49.814;8.652;2022-09-29T08:45:17;8.80;;;7.90;;
13279;SDS011;6708;49.814;8.652;2022-09-29T08:47:52;7.87;;;7.17;;
13279;SDS011;6708;49.814;8.652;2022-09-29T08:50:25;9.40;;;8.50;;
13279;SDS011;6708;49.814;8.652;2022-09-29T08:52:57;8.80;;;7.63;;
13279;SDS011;6708;49.814;8.652;2022-09-29T08:55:27;8.10;;;7.30;;
13279;SDS011;6708;49.814;8.652;2022-09-29T08:58:07;7.07;;;6.57;;
13279;SDS011;6708;49.814;8.652;2022-09-29T09:00:39;8.63;;;7.47;;
13279;SDS011;6708;49.814;8.652;2022-09-29T09:03:19;7.50;;;6.93;;
13279;SDS011;6708;49.814;8.652;2022-09-29T09:06:03;6.50;;;6.00;;
13279;SDS011;6708;49.814;8.652;2022-09-29T09:08:43;6.33;;;5.87;;
13279;SDS011;6708;49.814;8.652;2022-09-29T09:11:21;7.97;;;7.27;;
13279;SDS011;6708;49.814;8.652;2022-09-29T09:14:02;7.47;;;6.87;;
13279;SDS011;6708;49.814;8.652;2022-09-29T09:16:38;7.10;;;6.60;;
13279;SDS011;6708;49.814;8.652;2022-09-29T09:19:17;7.37;;;6.70;;
13279;SDS011;6708;49.814;8.652;2022-09-29T09:22:00;7.77;;;7.17;;
13279;SDS011;6708;49.814;8.652;2022-09-29T09:24:36;6.07;;;5.60;;
13279;SDS011;6708;49.814;8.652;2022-09-29T09:27:07;6.10;;;5.70;;
13279;SDS011;6708;49.814;8.652;2022-09-29T09:29:45;7.07;;;6.37;;
13279;SDS011;6708;49.814;8.652;2022-09-29T09:32:17;6.20;;;5.77;;
13279;SDS011;6708;49.814;8.652;2022-09-29T09:34:48;6.80;;;6.30;;
13279;SDS011;6708;49.814;8.652;2022-09-29T09:37:20;7.40;;;6.73;;
13279;SDS011;6708;49.814;8.652;2022-09-29T09:39:53;6.60;;;6.03;;
13279;SDS011;6708;49.814;8.652;2022-09-29T09:42:25;6.63;;;5.97;;
13279;SDS011;6708;49.814;8.652;2022-09-29T09:44:59;8.17;;;6.53;;
13279;SDS011;6708;49.814;8.652;2022-09-29T09:47:32;7.10;;;6.50;;
13279;SDS011;6708;49.814;8.652;2022-09-29T09:50:02;6.83;;;6.23;;
13279;SDS011;6708;49.814;8.652;2022-09-29T09:52:36;7.27;;;6.70;;
13279;SDS011;6708;49.814;8.652;2022-09-29T09:55:09;7.00;;;6.50;;
13279;SDS011;6708;49.814;8.652;2022-09-29T10:00:35;7.33;;;6.73;;
13279;SDS011;6708;49.814;8.652;2022-09-29T10:03:06;7.13;;;6.63;;
13279;SDS011;6708;49.814;8.652;2022-09-29T10:05:36;7.10;;;6.60;;
13279;SDS011;6708;49.814;8.652;2022-09-29T10:08:11;7.27;;;6.70;;
13279;SDS011;6708;49.814;8.652;2022-09-29T10:10:42;8.30;;;7.50;;
13279;SDS011;6708;49.814;8.652;2022-09-29T10:13:13;7.70;;;7.13;;
13279;SDS011;6708;49.814;8.652;2022-09-29T10:15:46;7.43;;;6.73;;
13279;SDS011;6708;49.814;8.652;2022-09-29T10:18:20;7.80;;;7.10;;
13279;SDS011;6708;49.814;8.652;2022-09-29T10:20:50;7.50;;;6.90;;
13279;SDS011;6708;49.814;8.652;2022-09-29T10:23:21;7.60;;;6.90;;
13279;SDS011;6708;49.814;8.652;2022-09-29T10:25:53;7.50;;;6.70;;
13279;SDS011;6708;49.814;8.652;2022-09-29T10:28:25;6.80;;;6.30;;
13279;SDS011;6708;49.814;8.652;2022-09-29T10:30:59;6.50;;;6.07;;
13279;SDS011;6708;49.814;8.652;2022-09-29T10:33:39;6.37;;;5.87;;
13279;SDS011;6708;49.814;8.652;2022-09-29T10:36:13;9.17;;;7.00;;
13279;SDS011;6708;49.814;8.652;2022-09-29T10:38:44;6.63;;;6.03;;
13279;SDS011;6708;49.814;8.652;2022-09-29T10:41:14;9.40;;;6.37;;
13279;SDS011;6708;49.814;8.652;2022-09-29T10:43:45;9.00;;;6.30;;
13279;SDS011;6708;49.814;8.652;2022-09-29T10:49:16;7.83;;;7.03;;
13279;SDS011;6708;49.814;8.652;2022-09-29T10:51:53;7.53;;;6.73;;
13279;SDS011;6708;49.814;8.652;2022-09-29T10:54:25;10.17;;;7.30;;
13279;SDS011;6708;49.814;8.652;2022-09-29T10:56:56;7.83;;;7.13;;
13279;SDS011;6708;49.814;8.652;2022-09-29T10:59:25;6.87;;;6.27;;
13279;SDS011;6708;49.814;8.652;2022-09-29T11:01:58;7.13;;;6.63;;
13279;SDS011;6708;49.814;8.652;2022-09-29T11:04:27;6.77;;;6.17;;
13279;SDS011;6708;49.814;8.652;2022-09-29T11:07:03;7.20;;;6.50;;
13279;SDS011;6708;49.814;8.652;2022-09-29T11:09:35;8.77;;;6.93;;
13279;SDS011;6708;49.814;8.652;2022-09-29T11:12:11;17.43;;;6.20;;
13279;SDS011;6708;49.814;8.652;2022-09-29T11:14:53;7.47;;;6.13;;
13279;SDS011;6708;49.814;8.652;2022-09-29T11:17:25;10.03;;;5.83;;
13279;SDS011;6708;49.814;8.652;2022-09-29T11:19:56;7.03;;;6.43;;
13279;SDS011;6708;49.814;8.652;2022-09-29T11:25:39;6.57;;;5.90;;
13279;SDS011;6708;49.814;8.652;2022-09-29T11:28:24;6.63;;;5.97;;
13279;SDS011;6708;49.814;8.652;2022-09-29T11:31:14;7.20;;;6.47;;
13279;SDS011;6708;49.814;8.652;2022-09-29T11:34:05;8.13;;;5.90;;
13279;SDS011;6708;49.814;8.652;2022-09-29T11:36:41;6.07;;;5.57;;
13279;SDS011;6708;49.814;8.652;2022-09-29T11:39:18;6.13;;;5.53;;
13279;SDS011;6708;49.814;8.652;2022-09-29T11:41:57;5.33;;;4.90;;
13279;SDS011;6708;49.814;8.652;2022-09-29T11:44:40;5.90;;;4.90;;
13279;SDS011;6708;49.814;8.652;2022-09-29T11:47:24;4.77;;;4.37;;
13279;SDS011;6708;49.814;8.652;2022-09-29T11:53:25;5.83;;;4.90;;
13279;SDS011;6708;49.814;8.652;2022-09-29T11:56:05;6.47;;;5.80;;
13279;SDS011;6708;49.814;8.652;2022-09-29T11:58:45;8.90;;;5.53;;
13279;SDS011;6708;49.814;8.652;2022-09-29T12:01:32;11.07;;;6.57;;
13279;SDS011;6708;49.814;8.652;2022-09-29T12:04:09;7.33;;;6.20;;
13279;SDS011;6708;49.814;8.652;2022-09-29T12:06:53;6.73;;;6.13;;
13279;SDS011;6708;49.814;8.652;2022-09-29T12:09:32;6.37;;;5.87;;
13279;SDS011;6708;49.814;8.652;2022-09-29T12:12:19;6.70;;;6.10;;
13279;SDS011;6708;49.814;8.652;2022-09-29T12:15:01;7.83;;;5.73;;
13279;SDS011;6708;49.814;8.652;2022-09-29T12:17:36;6.03;;;5.43;;
13279;SDS011;6708;49.814;8.652;2022-09-29T12:20:13;6.40;;;5.37;;
13279;SDS011;6708;49.814;8.652;2022-09-29T12:22:45;5.87;;;5.47;;
13279;SDS011;6708;49.814;8.652;2022-09-29T12:25:19;5.67;;;5.17;;
13279;SDS011;6708;49.814;8.652;2022-09-29T12:27:50;5.47;;;4.97;;
13279;SDS011;6708;49.814;8.652;2022-09-29T12:30:22;5.90;;;5.43;;
13279;SDS011;6708;49.814;8.652;2022-09-29T12:32:55;9.37;;;5.20;;
13279;SDS011;6708;49.814;8.652;2022-09-29T12:35:28;5.40;;;5.00;;
13279;SDS011;6708;49.814;8.652;2022-09-29T12:38:00;5.77;;;5.30;;
13279;SDS011;6708;49.814;8.652;2022-09-29T12:40:39;5.20;;;4.80;;
13279;SDS011;6708;49.814;8.652;2022-09-29T12:43:11;6.33;;;4.87;;
13279;SDS011;6708;49.814;8.652;2022-09-29T12:45:47;5.30;;;4.90;;
13279;SDS011;6708;49.814;8.652;2022-09-29T12:48:26;8.10;;;4.90;;
13279;SDS011;6708;49.814;8.652;2022-09-29T12:51:00;5.87;;;5.27;;
13279;SDS011;6708;49.814;8.652;2022-09-29T12:53:35;5.27;;;4.87;;
13279;SDS011;6708;49.814;8.652;2022-09-29T12:56:11;4.93;;;4.53;;
13279;SDS011;6708;49.814;8.652;2022-09-29T12:58:47;6.67;;;3.37;;
13279;SDS011;6708;49.814;8.652;2022-09-29T13:01:21;4.20;;;3.80;;
13279;SDS011;6708;49.814;8.652;2022-09-29T13:07:12;3.47;;;2.73;;
13279;SDS011;6708;49.814;8.652;2022-09-29T13:10:18;3.33;;;3.00;;
13279;SDS011;6708;49.814;8.652;2022-09-29T13:13:09;3.30;;;2.70;;
13279;SDS011;6708;49.814;8.652;2022-09-29T13:15:51;2.70;;;2.50;;
13279;SDS011;6708;49.814;8.652;2022-09-29T13:18:30;3.70;;;3.40;;
13279;SDS011;6708;49.814;8.652;2022-09-29T13:21:17;3.13;;;2.93;;
13279;SDS011;6708;49.814;8.652;2022-09-29T13:30:03;4.33;;;3.07;;
13279;SDS011;6708;49.814;8.652;2022-09-29T13:32:37;6.93;;;2.50;;
13279;SDS011;6708;49.814;8.652;2022-09-29T13:35:10;3.67;;;2.60;;
13279;SDS011;6708;49.814;8.652;2022-09-29T13:37:43;1.97;;;1.87;;
13279;SDS011;6708;49.814;8.652;2022-09-29T13:40:17;2.50;;;2.30;;
13279;SDS011;6708;49.814;8.652;2022-09-29T13:42:48;2.37;;;2.17;;
13279;SDS011;6708;49.814;8.652;2022-09-29T13:48:33;1.60;;;1.50;;
13279;SDS011;6708;49.814;8.652;2022-09-29T13:56:48;1.77;;;1.67;;
13279;SDS011;6708;49.814;8.652;2022-09-29T13:59:20;3.80;;;1.57;;
13279;SDS011;6708;49.814;8.652;2022-09-29T14:01:53;1.33;;;1.17;;
13279;SDS011;6708;49.814;8.652;2022-09-29T14:04:34;0.87;;;0.87;;
13279;SDS011;6708;49.814;8.652;2022-09-29T14:07:11;1.63;;;1.40;;
13279;SDS011;6708;49.814;8.652;2022-09-29T14:09:42;1.37;;;1.23;;
13279;SDS011;6708;49.814;8.652;2022-09-29T14:12:16;1.40;;;1.30;;
13279;SDS011;6708;49.814;8.652;2022-09-29T14:14:49;1.63;;;1.53;;
13279;SDS011;6708;49.814;8.652;2022-09-29T14:17:25;3.37;;;1.80;;
13279;SDS011;6708;49.814;8.652;2022-09-29T14:19:58;3.27;;;1.50;;
13279;SDS011;6708;49.814;8.652;2022-09-29T14:31:15;1.87;;;1.50;;
13279;SDS011;6708;49.814;8.652;2022-09-29T14:33:51;1.47;;;1.37;;
13279;SDS011;6708;49.814;8.652;2022-09-29T14:36:20;1.10;;;1.10;;
13279;SDS011;6708;49.814;8.652;2022-09-29T14:38:53;1.30;;;1.20;;
13279;SDS011;6708;49.814;8.652;2022-09-29T14:41:24;1.70;;;1.60;;
13279;SDS011;6708;49.814;8.652;2022-09-29T14:43:57;1.63;;;1.50;;
13279;SDS011;6708;49.814;8.652;2022-09-29T14:53:11;1.27;;;1.13;;
13279;SDS011;6708;49.814;8.652;2022-09-29T14:55:48;1.10;;;1.10;;
13279;SDS011;6708;49.814;8.652;2022-09-29T14:58:29;1.90;;;1.47;;
13279;SDS011;6708;49.814;8.652;2022-09-29T15:01:09;1.30;;;1.30;;
13279;SDS011;6708;49.814;8.652;2022-09-29T15:03:43;2.37;;;1.40;;
13279;SDS011;6708;49.814;8.652;2022-09-29T15:06:17;2.33;;;1.33;;
13279;SDS011;6708;49.814;8.652;2022-09-29T15:08:51;1.57;;;1.47;;
13279;SDS011;6708;49.814;8.652;2022-09-29T15:11:32;1.43;;;1.33;;
13279;SDS011;6708;49.814;8.652;2022-09-29T15:14:16;2.27;;;1.33;;
13279;SDS011;6708;49.814;8.652;2022-09-29T15:16:52;3.23;;;1.63;;
13279;SDS011;6708;49.814;8.652;2022-09-29T15:19:37;2.47;;;1.80;;
13279;SDS011;6708;49.814;8.652;2022-09-29T15:22:23;5.57;;;2.00;;
13279;SDS011;6708;49.814;8.652;2022-09-29T15:25:18;1.40;;;1.30;;
13279;SDS011;6708;49.814;8.652;2022-09-29T15:27:55;1.90;;;1.80;;
13279;SDS011;6708;49.814;8.652;2022-09-29T15:30:27;2.37;;;2.20;;
13279;SDS011;6708;49.814;8.652;2022-09-29T15:33:06;1.73;;;1.63;;
13279;SDS011;6708;49.814;8.652;2022-09-29T15:35:41;1.80;;;1.67;;
13279;SDS011;6708;49.814;8.652;2022-09-29T15:41:04;1.70;;;1.60;;
13279;SDS011;6708;49.814;8.652;2022-09-29T15:43:42;1.63;;;1.53;;
13279;SDS011;6708;49.814;8.652;2022-09-29T15:46:13;1.63;;;1.40;;
13279;SDS011;6708;49.814;8.652;2022-09-29T15:51:35;4.13;;;2.13;;
13279;SDS011;6708;49.814;8.652;2022-09-29T15:54:06;2.30;;;2.03;;
13279;SDS011;6708;49.814;8.652;2022-09-29T15:56:39;2.53;;;1.77;;
13279;SDS011;6708;49.814;8.652;2022-09-29T15:59:20;2.50;;;2.30;;
13279;SDS011;6708;49.814;8.652;2022-09-29T16:01:48;2.03;;;1.87;;
13279;SDS011;6708;49.814;8.652;2022-09-29T16:04:17;2.23;;;2.03;;
13279;SDS011;6708;49.814;8.652;2022-09-29T16:06:46;4.47;;;2.30;;
13279;SDS011;6708;49.814;8.652;2022-09-29T16:09:19;2.30;;;2.10;;
13279;SDS011;6708;49.814;8.652;2022-09-29T16:11:47;2.70;;;2.27;;
13279;SDS011;6708;49.814;8.652;2022-09-29T16:14:18;2.10;;;1.97;;
13279;SDS011;6708;49.814;8.652;2022-09-29T16:16:50;2.30;;;2.10;;
13279;SDS011;6708;49.814;8.652;2022-09-29T16:19:21;1.57;;;1.47;;
13279;SDS011;6708;49.814;8.652;2022-09-29T16:21:53;1.47;;;1.30;;
13279;SDS011;6708;49.814;8.652;2022-09-29T16:24:28;2.30;;;1.70;;
13279;SDS011;6708;49.814;8.652;2022-09-29T16:26:57;2.20;;;1.43;;
13279;SDS011;6708;49.814;8.652;2022-09-29T16:29:27;1.70;;;1.60;;
13279;SDS011;6708;49.814;8.652;2022-09-29T16:31:58;2.00;;;1.40;;